Shanghai Dawn — 3FMN2 — position and weather

sailwx.info

Track history (hours):
 
Tides and Currents Weather Stations Pressure Air Temp Water Temp Dewpoint Dewpoint Depression Visibility Wind Speed Wind Dir Waves Ship Positions

Shanghai Dawn

Last reported at 2016-Dec-06 14:08 UTC. Time now 2016-Dec-08 18:09 UTC.
Position N 01°09' E 103°46'.

Length 246 m; draft 8.5 m.

Type: Tanker. MMSI: 356075000.

Date/timePositionNaut miles runAvg speedWind from/ knotsBaromVisibWave heightAir tempDewpointWater temp
2016-Dec-06 14:08N 01°09' E 103°46'7 9.4
2016-Dec-06 13:26N 01°12' E 103°52'910.5
2016-Dec-06 12:33N 01°16' E 104°00'  
2016-Dec-03 10:32N 01°14' E 103°58'4 0.4
2016-Dec-03 02:29N 01°15' E 103°55'0 0.0
2016-Dec-03 00:33N 01°15' E 103°55'3 3.5
2016-Dec-02 23:33N 01°13' E 103°52'6 6.2
2016-Dec-02 22:33N 01°15' E 103°46'1 0.1
2016-Dec-01 21:20N 01°14' E 103°45'3 3.3
2016-Dec-01 20:33N 01°14' E 103°47'7 6.5
2016-Dec-01 19:30N 01°15' E 103°54'0 0.0
2016-Dec-01 18:09N 01°15' E 103°54'0 0.1
2016-Dec-01 17:18N 01°15' E 103°54'0 0.0
2016-Dec-01 16:33N 01°15' E 103°54'0 0.0
2016-Dec-01 14:24N 01°15' E 103°54'0 0.1
2016-Dec-01 13:24N 01°15' E 103°54'1 0.3
2016-Dec-01 10:33N 01°16' E 103°55'6 6.0
2016-Dec-01 09:33N 01°16' E 104°01'  
Track history (hours):
 
Tides and Currents Weather Stations Pressure Air Temp Water Temp Dewpoint Dewpoint Depression Visibility Wind Speed Wind Dir Waves Ship Positions

Shanghai Dawn

Last reported at 2016-Dec-06 14:08 UTC. Time now 2016-Dec-08 18:09 UTC.
Position N 01°09' E 103°46'.

Length 246 m; draft 8.5 m.

Type: Tanker. MMSI: 356075000.

Date/timePositionNaut miles runAvg speedWind from/ knotsBaromVisibWave heightAir tempDewpointWater temp
2016-Dec-06 14:08N 01°09' E 103°46'7 9.4
2016-Dec-06 13:26N 01°12' E 103°52'910.5
2016-Dec-06 12:33N 01°16' E 104°00'  
2016-Dec-03 10:32N 01°14' E 103°58'4 0.4
2016-Dec-03 02:29N 01°15' E 103°55'0 0.0
2016-Dec-03 00:33N 01°15' E 103°55'3 3.5
2016-Dec-02 23:33N 01°13' E 103°52'6 6.2
2016-Dec-02 22:33N 01°15' E 103°46'1 0.1
2016-Dec-01 21:20N 01°14' E 103°45'3 3.3
2016-Dec-01 20:33N 01°14' E 103°47'7 6.5
2016-Dec-01 19:30N 01°15' E 103°54'0 0.0
2016-Dec-01 18:09N 01°15' E 103°54'0 0.1
2016-Dec-01 17:18N 01°15' E 103°54'0 0.0
2016-Dec-01 16:33N 01°15' E 103°54'0 0.0
2016-Dec-01 14:24N 01°15' E 103°54'0 0.1
2016-Dec-01 13:24N 01°15' E 103°54'1 0.3
2016-Dec-01 10:33N 01°16' E 103°55'6 6.0
2016-Dec-01 09:33N 01°16' E 104°01'  

Dump ship's entire track history